Time;durP1;ratioP1;P1;durP2;ratioP2;P2;SDS_P1;SDS_P2;PMS_P1;PMS_P2;Temp;Humidity;BMP_temperature;BMP_pressure;BME280_temperature;BME280_humidity;BME280_pressure;Samples;Min_cycle;Max_cycle;Signal;HPM_P1;HPM_P2
2024/03/26 00:04:03;;;;;;;30.83;16.20;;;;;;;4.20;100.00;99820.59;5071887;57;1138570;-72
2024/03/26 00:09:09;;;;;;;31.87;16.53;;;;;;;4.17;100.00;99817.32;5052149;56;1138743;-73
2024/03/26 00:14:14;;;;;;;39.87;19.23;;;;;;;4.23;100.00;99814.33;5052432;57;1140636;-74
2024/03/26 00:19:20;;;;;;;40.28;17.60;;;;;;;4.26;100.00;99812.00;5072163;57;1138799;-74
2024/03/26 00:24:26;;;;;;;44.30;19.20;;;;;;;4.23;100.00;99809.09;5051533;57;1138626;-73
2024/03/26 00:29:32;;;;;;;56.27;19.90;;;;;;;4.16;100.00;99819.09;4905217;58;1138774;-74
2024/03/26 00:34:38;;;;;;;47.03;17.57;;;;;;;4.11;100.00;99813.80;4943831;58;1138529;-75
2024/03/26 00:39:43;;;;;;;40.90;17.50;;;;;;;4.01;100.00;99809.58;4975059;58;1138847;-73
2024/03/26 00:44:49;;;;;;;30.47;15.77;;;;;;;3.94;100.00;99816.14;4975058;58;1138700;-73
2024/03/26 00:49:55;;;;;;;31.80;13.23;;;;;;;3.88;100.00;99813.42;4975417;58;1138786;-75
2024/03/26 00:55:00;;;;;;;49.80;16.97;;;;;;;3.83;100.00;99810.24;5052009;57;1141392;-74
2024/03/26 01:00:10;;;;;;;49.07;19.60;;;;;;;3.89;100.00;99811.66;4976130;57;1140753;-74
2024/03/26 01:05:14;;;;;;;43.70;17.12;;;;;;;3.95;100.00;99810.45;4972154;57;1138597;-75
2024/03/26 01:10:20;;;;;;;42.50;18.73;;;;;;;4.00;100.00;99809.20;5076757;57;1138865;-74
2024/03/26 01:15:26;;;;;;;31.55;16.27;;;;;;;4.03;100.00;99814.72;4963346;58;1138587;-75
2024/03/26 01:20:31;;;;;;;30.50;15.57;;;;;;;4.00;100.00;99815.75;5058254;57;1138981;-74
2024/03/26 01:25:37;;;;;;;25.37;14.37;;;;;;;3.96;100.00;99826.52;4995488;57;1138389;-73
2024/03/26 01:30:43;;;;;;;35.40;16.53;;;;;;;3.96;100.00;99827.36;4975871;57;1138548;-73
2024/03/26 01:35:55;;;;;;;49.03;19.07;;;;;;;4.00;100.00;99821.45;4989343;57;1138573;-73
2024/03/26 01:41:01;;;;;;;36.98;17.17;;;;;;;4.02;100.00;99810.42;5031890;57;1138627;-73
2024/03/26 01:46:07;;;;;;;54.10;19.03;;;;;;;4.01;100.00;99814.81;5051751;57;1138523;-75
2024/03/26 01:51:13;;;;;;;45.87;20.90;;;;;;;3.88;100.00;99809.50;5025516;57;1138563;-76
2024/03/26 01:56:20;;;;;;;88.27;22.82;;;;;;;3.76;100.00;99805.03;4965769;58;1138628;-74
2024/03/26 02:01:28;;;;;;;67.23;21.60;;;;;;;3.67;100.00;99807.34;4984849;58;1138797;-74
2024/03/26 02:06:34;;;;;;;60.67;20.03;;;;;;;3.56;100.00;99808.47;4965490;58;1138464;-75
2024/03/26 02:11:40;;;;;;;91.73;20.50;;;;;;;3.53;100.00;99810.79;4964915;58;1138897;-75
2024/03/26 02:16:45;;;;;;;59.43;17.93;;;;;;;3.47;100.00;99814.63;4984464;58;1138398;-73
2024/03/26 02:21:52;;;;;;;36.27;15.67;;;;;;;3.34;100.00;99813.68;5051492;57;1138503;-74
2024/03/26 02:26:58;;;;;;;38.10;17.52;;;;;;;3.22;100.00;99822.68;5030639;57;1138972;-75
2024/03/26 02:32:03;;;;;;;42.27;16.83;;;;;;;3.08;100.00;99826.09;4990131;58;1138767;-75
2024/03/26 02:37:09;;;;;;;29.30;14.97;;;;;;;3.07;100.00;99816.11;4969715;58;1143441;-75
2024/03/26 02:42:15;;;;;;;36.63;15.67;;;;;;;3.01;100.00;99815.64;4967680;58;1138725;-75
2024/03/26 02:47:21;;;;;;;32.07;14.77;;;;;;;2.99;100.00;99809.66;4979484;58;1138773;-74
2024/03/26 02:52:26;;;;;;;35.92;16.55;;;;;;;2.94;100.00;99813.00;4909722;58;1138820;-74
2024/03/26 02:57:32;;;;;;;31.23;16.90;;;;;;;2.79;100.00;99814.25;4967684;58;1138446;-74
2024/03/26 03:02:38;;;;;;;23.57;12.90;;;;;;;2.66;100.00;99812.42;4986613;58;1138713;-75
2024/03/26 03:07:43;;;;;;;19.10;11.60;;;;;;;2.61;100.00;99809.22;4967813;58;1138798;-73
2024/03/26 03:12:49;;;;;;;19.00;12.70;;;;;;;2.57;100.00;99811.65;4967577;58;1138358;-72
2024/03/26 03:17:55;;;;;;;22.80;12.33;;;;;;;2.57;100.00;99811.19;4967880;58;1138598;-76
2024/03/26 03:23:00;;;;;;;38.67;15.67;;;;;;;2.58;100.00;99814.17;4987292;58;1138447;-73
2024/03/26 03:28:08;;;;;;;22.83;10.90;;;;;;;2.52;100.00;99804.06;4968116;57;1139276;-76
2024/03/26 03:33:13;;;;;;;17.40;9.70;;;;;;;2.43;100.00;99809.81;4967631;58;1138664;-76
2024/03/26 03:38:19;;;;;;;37.43;12.23;;;;;;;2.35;100.00;99808.07;4987405;58;1136434;-74
2024/03/26 03:43:25;;;;;;;47.00;15.67;;;;;;;2.27;100.00;99815.03;5008771;57;1138430;-75
2024/03/26 03:48:32;;;;;;;88.50;25.73;;;;;;;2.31;100.00;99815.22;4887182;59;1138522;-76
2024/03/26 03:53:38;;;;;;;49.60;20.72;;;;;;;2.32;100.00;99822.12;4955328;58;1138832;-74
2024/03/26 03:58:43;;;;;;;81.23;24.77;;;;;;;2.29;100.00;99818.37;4967534;58;1138594;-75
2024/03/26 04:03:50;;;;;;;23.07;12.37;;;;;;;2.19;100.00;99820.27;4968043;58;1138802;-74
2024/03/26 04:08:55;;;;;;;19.90;10.40;;;;;;;2.07;100.00;99815.27;4968336;58;1138521;-74
2024/03/26 04:14:01;;;;;;;44.33;16.07;;;;;;;1.99;100.00;99827.85;4986812;58;1138469;-75
2024/03/26 04:19:07;;;;;;;22.63;10.60;;;;;;;1.85;100.00;99834.27;4967610;58;1138498;-76
2024/03/26 04:24:12;;;;;;;13.43;8.97;;;;;;;1.75;100.00;99846.48;4968243;58;1138818;-75
2024/03/26 04:29:18;;;;;;;17.73;9.77;;;;;;;1.73;100.00;99850.94;4993542;58;1146227;-73
2024/03/26 04:34:24;;;;;;;27.27;13.68;;;;;;;1.74;100.00;99848.72;4967810;58;1136689;-73
2024/03/26 04:39:29;;;;;;;26.57;12.70;;;;;;;1.72;100.00;99860.98;4966511;58;1138588;-74
2024/03/26 04:44:35;;;;;;;32.13;14.80;;;;;;;1.74;100.00;99868.72;5026147;57;1138567;-73
2024/03/26 04:49:41;;;;;;;36.50;15.03;;;;;;;1.71;100.00;99868.88;5018891;57;1138518;-74
2024/03/26 04:54:47;;;;;;;34.03;15.70;;;;;;;1.67;100.00;99866.91;4975766;57;1138590;-74
2024/03/26 04:59:52;;;;;;;43.17;16.83;;;;;;;1.67;100.00;99864.31;4966053;57;1138651;-75
2024/03/26 05:04:58;;;;;;;39.30;16.50;;;;;;;1.73;100.00;99862.67;4989166;58;1138679;-73
2024/03/26 05:10:07;;;;;;;215.03;76.20;;;;;;;1.81;100.00;99854.47;4967894;57;1138576;-76
2024/03/26 05:15:12;;;;;;;157.00;53.50;;;;;;;1.79;100.00;99852.86;4964534;58;1180102;-74
2024/03/26 05:20:17;;;;;;;53.80;22.77;;;;;;;1.79;100.00;99851.09;4967443;57;1140587;-76
2024/03/26 05:25:23;;;;;;;39.42;17.65;;;;;;;1.78;100.00;99847.26;4968095;58;1138686;-75
2024/03/26 05:30:29;;;;;;;127.95;45.60;;;;;;;1.74;100.00;99851.78;4901815;58;1138759;-76
2024/03/26 05:35:35;;;;;;;85.73;36.27;;;;;;;1.78;100.00;99848.56;4907117;59;1140738;-75
2024/03/26 05:40:40;;;;;;;44.87;20.37;;;;;;;1.79;100.00;99849.79;4967098;58;1138431;-76
2024/03/26 05:45:46;;;;;;;43.37;19.17;;;;;;;1.90;100.00;99850.06;4888075;58;1138468;-77
2024/03/26 05:50:53;;;;;;;41.33;17.05;;;;;;;2.04;100.00;99851.47;4891345;58;1138538;-76
2024/03/26 05:55:58;;;;;;;34.53;17.77;;;;;;;2.13;100.00;99840.19;4978937;58;1138414;-76
2024/03/26 06:01:06;;;;;;;81.40;33.33;;;;;;;2.28;100.00;99840.20;4963071;58;1138412;-74
2024/03/26 06:06:12;;;;;;;62.70;27.67;;;;;;;2.52;100.00;99838.45;4963037;58;1140418;-74
2024/03/26 06:11:18;;;;;;;35.47;16.97;;;;;;;2.69;100.00;99828.77;4941245;58;1138759;-75
2024/03/26 06:16:23;;;;;;;28.53;11.63;;;;;;;2.88;100.00;99827.73;4903933;58;1138572;-75
2024/03/26 06:21:29;;;;;;;40.35;13.25;;;;;;;3.09;100.00;99826.48;4912139;58;1138907;-77
2024/03/26 06:26:35;;;;;;;19.17;10.30;;;;;;;3.29;100.00;99826.17;4966589;58;1140889;-75
2024/03/26 06:31:41;;;;;;;22.43;12.33;;;;;;;3.48;100.00;99829.85;4883984;59;1138922;-77
2024/03/26 06:36:46;;;;;;;22.60;11.30;;;;;;;3.60;100.00;99826.97;4960329;58;1138495;-77
2024/03/26 06:41:53;;;;;;;21.90;11.03;;;;;;;3.78;100.00;99829.78;4969254;58;1140852;-75
2024/03/26 06:46:59;;;;;;;23.65;12.82;;;;;;;4.04;100.00;99827.72;5020206;57;1141178;-76
2024/03/26 06:52:06;;;;;;;29.53;14.63;;;;;;;4.24;100.00;99793.30;5057941;57;1138581;-74
2024/03/26 06:57:12;;;;;;;24.03;11.63;;;;;;;4.42;100.00;99822.72;5058181;57;1138594;-74
2024/03/26 07:02:17;;;;;;;23.40;13.83;;;;;;;4.67;100.00;99825.91;5026565;57;1140898;-76
2024/03/26 07:07:23;;;;;;;28.25;14.58;;;;;;;4.83;100.00;99827.06;4982078;57;1138585;-77
2024/03/26 07:12:30;;;;;;;23.77;12.55;;;;;;;5.01;100.00;99825.87;4976706;57;1138695;-76
2024/03/26 07:17:35;;;;;;;21.60;11.73;;;;;;;5.25;100.00;99820.77;4995894;57;1140587;-75
2024/03/26 07:22:41;;;;;;;25.77;15.33;;;;;;;5.47;100.00;99826.27;4976611;57;1140691;-76
2024/03/26 07:27:47;;;;;;;23.37;13.23;;;;;;;5.68;100.00;99821.33;4975985;57;1140911;-77
2024/03/26 07:32:52;;;;;;;20.50;12.67;;;;;;;5.96;100.00;99815.04;4976626;57;1138869;-77
2024/03/26 07:37:58;;;;;;;20.23;12.27;;;;;;;6.28;100.00;99811.46;4995819;58;1141096;-74
2024/03/26 07:43:04;;;;;;;22.87;11.90;;;;;;;6.59;100.00;99807.00;4976277;58;1140732;-75
2024/03/26 07:48:10;;;;;;;20.10;9.73;;;;;;;6.84;100.00;99795.55;4982743;58;1140940;-75
2024/03/26 07:53:16;;;;;;;24.77;14.38;;;;;;;7.05;100.00;99792.63;5005624;57;1136857;-77
2024/03/26 07:58:22;;;;;;;11.35;6.70;;;;;;;7.24;100.00;99789.47;4979457;57;1140554;-75
2024/03/26 08:03:28;;;;;;;10.43;7.10;;;;;;;7.50;100.00;99798.00;4968044;58;1138669;-77
2024/03/26 08:08:33;;;;;;;15.53;7.30;;;;;;;7.68;100.00;99794.44;4987133;58;1138916;-77
2024/03/26 08:13:40;;;;;;;21.83;10.13;;;;;;;7.89;100.00;99795.91;4967697;58;1138748;-77
2024/03/26 08:18:45;;;;;;;11.93;6.73;;;;;;;8.09;100.00;99789.92;4967156;58;1138648;-77
2024/03/26 08:23:51;;;;;;;11.80;6.97;;;;;;;8.40;100.00;99787.84;4987125;58;1138831;-75
2024/03/26 08:28:57;;;;;;;14.23;10.97;;;;;;;8.44;100.00;99776.58;4921461;57;1138616;-75
2024/03/26 08:34:02;;;;;;;15.78;7.12;;;;;;;8.48;100.00;99783.29;4967799;58;1140816;-77
2024/03/26 08:39:10;;;;;;;11.07;6.83;;;;;;;8.60;100.00;99785.41;4987251;58;1138483;-77
2024/03/26 08:44:16;;;;;;;10.70;7.40;;;;;;;8.80;100.00;99774.92;4967238;58;1138716;-77
2024/03/26 08:49:21;;;;;;;13.90;8.47;;;;;;;8.84;100.00;99772.04;4972360;57;1138609;-74
2024/03/26 08:54:27;;;;;;;9.60;7.12;;;;;;;8.96;100.00;99763.11;4998903;57;1139027;-77
2024/03/26 08:59:33;;;;;;;11.93;7.80;;;;;;;9.23;100.00;99763.44;4967895;58;1136860;-75
2024/03/26 09:04:39;;;;;;;12.73;7.47;;;;;;;9.39;100.00;99766.46;4967436;58;1138643;-75
2024/03/26 09:09:44;;;;;;;14.03;8.07;;;;;;;9.55;100.00;99759.39;4986703;58;1138385;-75
2024/03/26 09:14:50;;;;;;;11.93;7.00;;;;;;;9.57;100.00;99750.86;4967343;58;1138596;-78
2024/03/26 09:19:57;;;;;;;10.07;7.10;;;;;;;9.70;100.00;99742.72;4966673;58;1138554;-77
2024/03/26 09:25:03;;;;;;;11.88;7.17;;;;;;;9.78;100.00;99736.28;4966163;57;1138479;-75
2024/03/26 09:30:10;;;;;;;24.53;14.50;;;;;;;9.62;100.00;99735.48;4913973;58;1138671;-77
2024/03/26 09:35:16;;;;;;;72.40;43.60;;;;;;;9.68;100.00;99726.17;4886972;58;1140818;-75
2024/03/26 09:40:22;;;;;;;14.83;8.30;;;;;;;9.91;100.00;99721.06;4887038;58;1140591;-76
2024/03/26 09:45:33;;;;;;;12.33;7.10;;;;;;;10.03;100.00;99719.98;4906764;59;1138702;-75
2024/03/26 09:50:41;;;;;;;13.23;7.97;;;;;;;10.23;100.00;99714.30;4947145;57;1140847;-73
2024/03/26 09:55:46;;;;;;;17.33;9.77;;;;;;;10.48;100.00;99697.91;5017566;57;1140654;-76
2024/03/26 10:00:53;;;;;;;16.50;8.78;;;;;;;10.49;100.00;99695.61;5013953;57;1140978;-76
2024/03/26 10:06:03;;;;;;;14.63;8.93;;;;;;;10.62;100.00;99678.14;4955816;57;1140705;-77
2024/03/26 10:11:09;;;;;;;15.53;7.37;;;;;;;10.74;100.00;99672.21;4937201;58;1140636;-75
2024/03/26 10:16:14;;;;;;;11.43;7.07;;;;;;;10.84;100.00;99674.38;4937176;58;1140878;-78
2024/03/26 10:21:20;;;;;;;12.80;8.27;;;;;;;10.87;100.00;99670.94;4956898;57;1148284;-76
2024/03/26 10:26:26;;;;;;;11.40;6.60;;;;;;;10.79;100.00;99663.38;4951138;57;1140724;-74
2024/03/26 10:31:32;;;;;;;13.78;6.65;;;;;;;10.86;100.00;99656.53;5018743;57;1140728;-77
2024/03/26 10:36:40;;;;;;;8.67;5.87;;;;;;;10.80;100.00;99650.50;5047541;57;1140645;-77
2024/03/26 10:41:54;;;;;;;11.05;6.30;;;;;;;10.82;100.00;99641.45;5038792;57;1138375;-74
2024/03/26 10:47:04;;;;;;;10.63;8.10;;;;;;;10.91;100.00;99630.00;5039196;57;1140527;-76
2024/03/26 10:52:11;;;;;;;10.60;7.63;;;;;;;11.04;100.00;99633.66;5019134;57;1140839;-74
2024/03/26 10:57:22;;;;;;;14.77;8.27;;;;;;;11.23;100.00;99626.98;5042600;57;1140569;-76
2024/03/26 11:02:32;;;;;;;9.75;7.60;;;;;;;11.41;100.00;99625.73;5044229;57;1140762;-75
2024/03/26 11:07:48;;;;;;;27.17;10.63;;;;;;;11.53;100.00;99617.11;5057925;57;1258326;-77
2024/03/26 11:13:09;;;;;;;14.93;7.78;;;;;;;11.72;100.00;99610.88;5058833;57;1142791;-74
2024/03/26 11:18:31;;;;;;;9.93;6.73;;;;;;;11.75;100.00;99607.45;4974668;58;1141123;-77
2024/03/26 11:23:48;;;;;;;17.00;8.70;;;;;;;11.74;100.00;99594.34;4948459;58;1138445;-77
2024/03/26 11:29:18;;;;;;;13.27;8.10;;;;;;;11.76;100.00;99576.52;5015464;57;1140579;-74
2024/03/26 11:34:40;;;;;;;14.28;8.53;;;;;;;11.74;100.00;99573.16;5034146;57;1141044;-75
2024/03/26 11:40:03;;;;;;;19.07;10.37;;;;;;;11.80;100.00;99563.30;5050609;57;1140877;-77
2024/03/26 11:45:32;;;;;;;15.58;9.10;;;;;;;11.87;100.00;99561.73;5041671;57;1143058;-75
2024/03/26 11:50:58;;;;;;;16.40;9.13;;;;;;;11.94;100.00;99548.20;5022653;57;1141650;-77
2024/03/26 11:56:14;;;;;;;14.00;10.97;;;;;;;12.12;100.00;99534.95;5031767;57;1141029;-77
2024/03/26 12:01:40;;;;;;;8.13;6.33;;;;;;;12.23;100.00;99526.75;5061445;57;1142663;-75
2024/03/26 12:07:09;;;;;;;11.38;8.65;;;;;;;12.28;100.00;99513.87;5038954;57;1138831;-76
2024/03/26 12:12:35;;;;;;;10.87;7.40;;;;;;;12.36;100.00;99513.13;4992499;57;1140832;-76
2024/03/26 12:17:35;;;;;;;6.33;4.73;;;;;;;12.41;100.00;99493.58;4970368;58;1140846;-76
2024/03/26 12:22:42;;;;;;;9.03;5.50;;;;;;;12.50;100.00;99481.56;4993987;58;1138677;-75
2024/03/26 12:27:48;;;;;;;7.60;5.33;;;;;;;12.65;100.00;99484.47;5007345;57;1255279;-76
2024/03/26 12:33:02;;;;;;;6.37;4.60;;;;;;;12.80;100.00;99476.74;5057079;57;1198275;-75
2024/03/26 12:38:08;;;;;;;6.35;4.50;;;;;;;12.73;100.00;99488.97;5016703;57;1138748;-75
2024/03/26 12:43:15;;;;;;;4.93;4.40;;;;;;;12.72;100.00;99466.08;4994304;58;1138921;-77
2024/03/26 12:48:21;;;;;;;7.80;4.87;;;;;;;12.73;100.00;99451.83;4974980;58;1138880;-75
2024/03/26 12:53:27;;;;;;;7.43;4.57;;;;;;;12.75;100.00;99444.54;5022197;57;1138833;-75
2024/03/26 12:58:32;;;;;;;5.57;4.33;;;;;;;12.97;100.00;99442.16;5077614;57;1139095;-76
2024/03/26 13:03:38;;;;;;;9.43;5.77;;;;;;;13.08;98.59;99431.73;5056724;57;1138745;-76
2024/03/26 13:08:44;;;;;;;9.67;5.23;;;;;;;13.12;100.00;99430.92;5007212;57;1136575;-76
2024/03/26 13:13:52;;;;;;;9.87;5.20;;;;;;;13.03;98.64;99421.59;4988452;58;1138713;-75
2024/03/26 13:18:58;;;;;;;7.13;5.50;;;;;;;13.06;100.00;99416.46;4938084;58;1136705;-75
2024/03/26 13:24:04;;;;;;;12.60;6.60;;;;;;;13.10;96.45;99413.83;4950959;58;1138691;-76
2024/03/26 13:29:10;;;;;;;8.08;5.67;;;;;;;13.16;100.00;99405.23;4986754;58;1138825;-77
2024/03/26 13:34:16;;;;;;;7.03;5.70;;;;;;;13.21;99.69;99408.73;4967117;58;1138979;-77
2024/03/26 13:39:21;;;;;;;8.10;6.13;;;;;;;13.25;97.24;99387.01;4966011;58;1136907;-77
2024/03/26 13:44:27;;;;;;;9.90;5.60;;;;;;;13.30;99.47;99387.83;4986594;58;1136781;-75
2024/03/26 13:49:33;;;;;;;10.60;5.70;;;;;;;13.30;97.34;99386.50;4966802;56;1136565;-77
2024/03/26 13:54:39;;;;;;;7.77;5.70;;;;;;;13.21;97.55;99367.58;4966308;58;1138790;-76
2024/03/26 13:59:55;;;;;;;9.38;6.67;;;;;;;13.22;96.59;99363.43;4973784;58;1136648;-78
2024/03/26 14:05:00;;;;;;;6.13;5.30;;;;;;;13.28;96.91;99361.95;4952009;56;1136736;-77
2024/03/26 14:10:08;;;;;;;7.25;6.28;;;;;;;13.30;96.33;99342.19;4888100;58;1136704;-76
2024/03/26 14:15:14;;;;;;;8.85;6.00;;;;;;;13.35;95.61;99323.94;4898260;57;1136560;-77
2024/03/26 14:20:21;;;;;;;7.00;5.37;;;;;;;13.41;97.72;99306.52;5024720;57;1136775;-76
2024/03/26 14:25:27;;;;;;;7.73;6.23;;;;;;;13.47;96.28;99293.05;4975823;58;1136721;-76
2024/03/26 14:30:32;;;;;;;10.03;5.47;;;;;;;13.52;95.93;99280.94;4975369;57;1136773;-75
2024/03/26 14:35:38;;;;;;;8.63;6.70;;;;;;;13.63;95.11;99277.92;4903340;58;1138800;-77
2024/03/26 14:40:44;;;;;;;13.00;6.20;;;;;;;13.70;95.59;99280.25;4974611;58;1136706;-75
2024/03/26 14:45:49;;;;;;;14.03;10.80;;;;;;;13.70;93.07;99272.78;4883687;58;1138943;-78
2024/03/26 14:50:56;;;;;;;15.90;9.57;;;;;;;13.74;94.01;99262.15;4979594;57;1140671;-78
2024/03/26 14:56:03;;;;;;;26.27;11.90;;;;;;;13.73;94.03;99261.32;5072727;57;1138640;-75
2024/03/26 15:01:09;;;;;;;8.30;5.30;;;;;;;13.79;92.49;99248.33;5007232;57;1140924;-78
2024/03/26 15:06:15;;;;;;;27.03;15.90;;;;;;;13.75;93.31;99239.06;4975382;58;1136659;-78
2024/03/26 15:11:20;;;;;;;13.23;8.20;;;;;;;13.76;91.20;99234.88;4993929;58;1140852;-75
2024/03/26 15:16:26;;;;;;;12.43;8.10;;;;;;;13.70;89.92;99228.44;4975240;58;1138772;-74
2024/03/26 15:21:32;;;;;;;9.23;6.53;;;;;;;13.68;93.43;99221.63;4969056;58;1138586;-74
2024/03/26 15:31:58;;;;;;;8.80;7.03;;;;;;;13.54;92.02;99205.06;5013646;57;1136749;-75
2024/03/26 15:32:07;;;;;;;11.57;6.00;;;;;;;13.44;91.72;99187.17;5046935;57;1136696;-77
2024/03/26 15:36:55;;;;;;;9.93;5.83;;;;;;;13.35;93.24;99189.00;5044493;57;1138762;-77
2024/03/26 15:42:01;;;;;;;13.48;8.13;;;;;;;13.26;92.41;99184.72;5023165;57;1136779;-77
2024/03/26 15:47:08;;;;;;;8.35;6.05;;;;;;;13.17;91.38;99163.97;4989526;57;1139158;-78
2024/03/26 15:52:13;;;;;;;8.63;5.57;;;;;;;13.09;91.16;99161.31;4982816;57;1136851;-76
2024/03/26 15:57:19;;;;;;;12.77;6.97;;;;;;;13.06;93.82;99156.83;5032254;57;1136806;-75
2024/03/26 16:02:25;;;;;;;18.30;9.63;;;;;;;13.03;92.91;99160.64;5094081;57;1138623;-74
2024/03/26 16:07:31;;;;;;;7.33;5.70;;;;;;;12.99;93.03;99148.70;5073937;57;1138576;-76
2024/03/26 16:12:37;;;;;;;11.40;6.73;;;;;;;12.93;93.73;99140.93;5074888;57;1136348;-74
2024/03/26 16:17:43;;;;;;;19.77;6.17;;;;;;;12.87;96.31;99138.09;5094534;57;1138650;-76
2024/03/26 16:22:48;;;;;;;14.33;7.40;;;;;;;12.80;95.62;99133.98;5007168;57;1139035;-75
2024/03/26 16:27:54;;;;;;;25.23;12.30;;;;;;;12.74;95.68;99130.66;5049236;57;1138617;-73
2024/03/26 16:33:01;;;;;;;18.70;8.73;;;;;;;12.63;95.99;99124.36;5048987;57;1140958;-77
2024/03/26 16:38:07;;;;;;;39.63;16.10;;;;;;;12.53;95.63;99124.51;5056865;57;1139009;-77
2024/03/26 16:43:12;;;;;;;34.92;17.90;;;;;;;12.47;97.54;99115.08;4966680;58;1140905;-76
2024/03/26 16:48:18;;;;;;;15.37;8.20;;;;;;;12.37;95.33;99112.59;4966544;58;1140904;-75
2024/03/26 16:53:24;;;;;;;7.70;6.43;;;;;;;12.31;96.36;99112.75;5047445;57;1138581;-75
2024/03/26 16:58:29;;;;;;;23.50;14.00;;;;;;;12.25;96.52;99112.06;5079753;57;1136527;-75
2024/03/26 17:03:35;;;;;;;14.20;7.63;;;;;;;12.19;97.08;99103.47;5081753;57;1140575;-74
2024/03/26 17:08:41;;;;;;;21.43;8.20;;;;;;;12.13;97.39;99105.43;5101984;57;1138686;-77
2024/03/26 17:13:47;;;;;;;18.63;10.37;;;;;;;12.10;98.80;99096.97;5082285;57;1138414;-75
2024/03/26 17:18:54;;;;;;;67.93;38.97;;;;;;;12.06;99.56;99093.01;5055055;57;1141006;-75
2024/03/26 17:24:00;;;;;;;44.27;22.20;;;;;;;11.99;100.00;99092.82;4967172;58;1144846;-75
2024/03/26 17:29:06;;;;;;;21.33;14.53;;;;;;;11.92;100.00;99082.52;4871333;59;1143113;-76
2024/03/26 17:34:11;;;;;;;20.25;11.08;;;;;;;11.81;100.00;99081.52;4967983;58;1142885;-74
2024/03/26 17:39:17;;;;;;;20.20;9.53;;;;;;;11.69;100.00;99081.45;4968722;58;1142914;-74
2024/03/26 17:44:23;;;;;;;13.33;8.73;;;;;;;11.55;100.00;99082.91;4988410;58;1140884;-78
2024/03/26 17:49:29;;;;;;;15.87;9.47;;;;;;;11.46;100.00;99086.00;4997141;57;1140813;-79
2024/03/26 17:54:35;;;;;;;14.97;9.57;;;;;;;11.42;100.00;99079.88;5018962;57;1141309;-78
2024/03/26 17:59:41;;;;;;;18.27;8.87;;;;;;;11.34;100.00;99078.50;5051293;57;1140679;-79
2024/03/26 18:04:46;;;;;;;17.57;8.87;;;;;;;11.26;100.00;99084.11;5030934;57;1140936;-77
2024/03/26 18:09:52;;;;;;;19.93;10.83;;;;;;;11.22;100.00;99083.25;5031131;56;1140987;-79
2024/03/26 18:14:58;;;;;;;15.90;9.57;;;;;;;11.15;100.00;99079.59;5039056;56;1142919;-79
2024/03/26 18:20:05;;;;;;;16.83;9.73;;;;;;;11.09;100.00;99076.25;5038969;57;1140731;-79
2024/03/26 18:25:12;;;;;;;18.32;10.50;;;;;;;11.04;100.00;99078.03;4955095;57;1140705;-78
2024/03/26 18:30:18;;;;;;;17.52;10.23;;;;;;;11.00;100.00;99079.32;4936757;58;1142877;-78
2024/03/26 18:35:24;;;;;;;22.97;11.53;;;;;;;10.95;100.00;99067.57;4956147;58;1143074;-77
2024/03/26 18:40:30;;;;;;;32.30;15.73;;;;;;;10.89;100.00;99076.46;4937269;58;1142945;-78
2024/03/26 18:45:35;;;;;;;19.57;9.20;;;;;;;10.85;100.00;99067.66;4937863;57;1142842;-77
2024/03/26 18:50:41;;;;;;;11.30;7.37;;;;;;;10.83;100.00;99070.98;4958063;57;1140823;-79
2024/03/26 18:55:49;;;;;;;17.13;8.87;;;;;;;10.80;100.00;99064.67;5018611;57;1141088;-79
2024/03/26 19:00:59;;;;;;;15.00;7.93;;;;;;;10.78;100.00;99064.83;5017874;57;1140728;-79
2024/03/26 19:06:06;;;;;;;16.73;8.43;;;;;;;10.75;100.00;99070.42;5019006;57;1141056;-78
2024/03/26 19:11:12;;;;;;;15.13;6.92;;;;;;;10.73;100.00;99071.06;5019268;57;1140758;-79
2024/03/26 19:16:18;;;;;;;13.88;6.53;;;;;;;10.71;100.00;99061.13;5019542;57;1140787;-78
2024/03/26 19:21:24;;;;;;;13.53;6.73;;;;;;;10.71;100.00;99070.87;4965721;57;1140707;-78
2024/03/26 19:26:30;;;;;;;10.67;6.70;;;;;;;10.69;100.00;99053.88;4957392;58;1140868;-80
2024/03/26 19:31:36;;;;;;;11.90;6.17;;;;;;;10.66;100.00;99052.86;4937975;58;1140722;-80
2024/03/26 19:36:41;;;;;;;11.90;6.47;;;;;;;10.62;100.00;99051.98;4937487;58;1140886;-79
2024/03/26 19:41:48;;;;;;;13.80;7.73;;;;;;;10.58;100.00;99044.36;4967771;58;1140743;-78
2024/03/26 19:46:53;;;;;;;25.57;14.40;;;;;;;10.55;100.00;99049.95;4969514;58;1140676;-77
2024/03/26 19:51:59;;;;;;;15.80;9.20;;;;;;;10.50;100.00;99051.42;4968547;57;1143133;-79
2024/03/26 19:57:06;;;;;;;16.37;7.73;;;;;;;10.47;100.00;99051.23;4968001;58;1141119;-78
2024/03/26 20:02:12;;;;;;;11.27;7.20;;;;;;;10.43;100.00;99040.62;4987413;58;1150726;-78
2024/03/26 20:07:19;;;;;;;11.80;6.37;;;;;;;10.39;100.00;99038.46;4941990;58;1140736;-78
2024/03/26 20:12:25;;;;;;;10.83;6.27;;;;;;;10.36;100.00;99033.48;4937053;58;1140885;-79
2024/03/26 20:17:30;;;;;;;14.97;7.70;;;;;;;10.32;100.00;99036.91;4958223;58;1140656;-78
2024/03/26 20:22:36;;;;;;;10.70;7.10;;;;;;;10.29;100.00;99028.45;4966794;58;1140887;-78
2024/03/26 20:27:42;;;;;;;11.43;6.37;;;;;;;10.25;100.00;99025.28;4980736;57;1140770;-78
2024/03/26 20:32:48;;;;;;;10.03;6.60;;;;;;;10.22;100.00;99017.69;5077238;57;1140736;-78
2024/03/26 20:37:53;;;;;;;8.73;5.07;;;;;;;10.21;100.00;99010.25;5055460;57;1140918;-78
2024/03/26 20:42:59;;;;;;;14.07;6.03;;;;;;;10.18;100.00;99012.33;4994642;57;1138706;-79
2024/03/26 20:48:05;;;;;;;11.43;6.60;;;;;;;10.15;100.00;99004.70;4996422;57;1141012;-77
2024/03/26 20:53:11;;;;;;;9.20;5.65;;;;;;;10.12;100.00;98991.80;5042842;57;1140824;-78
2024/03/26 20:58:17;;;;;;;11.63;5.80;;;;;;;10.08;100.00;98995.23;5058754;57;1138937;-78
2024/03/26 21:03:23;;;;;;;13.13;6.47;;;;;;;10.07;100.00;98981.71;5034852;57;1141168;-77
2024/03/26 21:08:29;;;;;;;13.53;5.80;;;;;;;10.04;100.00;98984.66;4871690;58;1140751;-79
2024/03/26 21:13:35;;;;;;;9.13;5.13;;;;;;;9.99;100.00;98976.34;5007759;57;1140693;-77
2024/03/26 21:18:47;;;;;;;12.63;5.93;;;;;;;9.97;100.00;98972.20;5048957;57;1136601;-77
2024/03/26 21:23:48;;;;;;;10.67;6.13;;;;;;;9.93;100.00;98976.14;5037138;57;1138448;-77
2024/03/26 21:28:54;;;;;;;10.73;5.50;;;;;;;9.90;100.00;98957.96;5058256;57;1138451;-78
2024/03/26 21:34:00;;;;;;;12.70;5.37;;;;;;;9.85;100.00;98959.73;5032834;57;1138570;-78
2024/03/26 21:39:06;;;;;;;12.37;6.43;;;;;;;9.79;100.00;98955.05;4954724;57;1139477;-78
2024/03/26 21:44:12;;;;;;;14.33;6.95;;;;;;;9.76;100.00;98956.20;4986957;58;1138793;-78
2024/03/26 21:49:18;;;;;;;14.90;6.25;;;;;;;9.72;100.00;98943.45;4966355;57;1138587;-77
2024/03/26 21:54:24;;;;;;;16.23;5.83;;;;;;;9.64;100.00;98935.44;4954266;58;1138889;-78
2024/03/26 21:59:30;;;;;;;16.37;6.57;;;;;;;9.58;100.00;98943.49;4982766;57;1138766;-78
2024/03/26 22:04:35;;;;;;;14.67;6.73;;;;;;;9.52;100.00;98940.13;4967621;57;1138659;-77
2024/03/26 22:09:41;;;;;;;11.33;5.63;;;;;;;9.47;100.00;98949.80;4967542;58;1138700;-78
2024/03/26 22:14:51;;;;;;;10.27;5.67;;;;;;;9.46;100.00;98944.70;4986987;58;1136688;-77
2024/03/26 22:19:57;;;;;;;12.73;5.90;;;;;;;9.38;100.00;98941.48;4967374;58;1136607;-78
2024/03/26 22:25:05;;;;;;;9.98;6.30;;;;;;;9.33;100.00;98930.53;4967272;58;1136576;-77
2024/03/26 22:30:11;;;;;;;10.58;6.12;;;;;;;9.31;100.00;98927.25;4960185;57;1134352;-78
2024/03/26 22:35:19;;;;;;;8.93;5.10;;;;;;;9.27;100.00;98926.37;4878041;58;1136771;-78
2024/03/26 22:40:25;;;;;;;14.20;7.03;;;;;;;9.20;100.00;98920.84;4877037;58;1134419;-77
2024/03/26 22:45:30;;;;;;;9.83;5.90;;;;;;;9.14;100.00;98915.70;4896084;58;1136830;-77
2024/03/26 22:50:39;;;;;;;13.37;6.13;;;;;;;9.08;100.00;98912.81;4876790;58;1134337;-77
2024/03/26 22:55:45;;;;;;;8.63;4.93;;;;;;;9.04;100.00;98906.17;4959673;57;1136370;-78
2024/03/26 23:00:53;;;;;;;9.23;5.23;;;;;;;9.01;100.00;98913.08;5039442;57;1134590;-78
2024/03/26 23:06:04;;;;;;;8.80;4.90;;;;;;;8.96;100.00;98898.19;5019932;57;1134266;-78